createdAt,value
2023-02-06T00:00:47.111Z,102977.22
2023-02-06T00:02:50.098Z,102974.56
2023-02-06T00:04:52.901Z,102974.72
2023-02-06T00:06:57.065Z,102978.41
2023-02-06T00:08:59.905Z,102973.31
2023-02-06T00:11:04.758Z,102973.41
2023-02-06T00:13:07.535Z,102976.22
2023-02-06T00:15:10.914Z,102976.34
2023-02-06T00:17:13.808Z,102972.88
2023-02-06T00:19:16.753Z,102966.94
2023-02-06T00:21:21.935Z,102972.28
2023-02-06T00:23:26.098Z,102964.41
2023-02-06T00:25:29.064Z,102962.00
2023-02-06T00:27:32.053Z,102965.53
2023-02-06T00:29:34.907Z,102964.75
2023-02-06T00:31:37.771Z,102967.47
2023-02-06T00:33:42.733Z,102967.53
2023-02-06T00:35:45.545Z,102968.44
2023-02-06T00:37:49.058Z,102967.63
2023-02-06T00:39:53.351Z,102962.41
2023-02-06T00:41:56.680Z,102957.22
2023-02-06T00:43:59.463Z,102959.94
2023-02-06T00:46:02.418Z,102961.66
2023-02-06T00:48:05.432Z,102961.69
2023-02-06T00:50:08.557Z,102957.53
2023-02-06T00:52:11.409Z,102958.78
2023-02-06T00:54:14.664Z,102959.69
2023-02-06T00:56:20.141Z,102957.91
2023-02-06T00:58:23.140Z,102943.84
2023-02-06T01:00:25.961Z,102949.88
2023-02-06T01:02:29.050Z,102949.69
2023-02-06T01:04:39.028Z,102945.31
2023-02-06T01:06:42.652Z,102947.75
2023-02-06T01:08:45.656Z,102951.97
2023-02-06T01:10:48.463Z,102956.28
2023-02-06T01:12:52.798Z,102954.25
2023-02-06T01:14:55.621Z,102956.75
2023-02-06T01:16:58.410Z,102957.56
2023-02-06T01:19:01.253Z,102954.81
2023-02-06T01:21:09.187Z,102962.59
2023-02-06T01:23:12.084Z,102964.25
2023-02-06T01:25:14.983Z,102963.22
2023-02-06T01:27:17.785Z,102968.25
2023-02-06T01:29:22.032Z,102973.28
2023-02-06T01:31:27.097Z,102974.03
2023-02-06T01:33:30.465Z,102971.41
2023-02-06T01:35:33.431Z,102972.22
2023-02-06T01:37:36.888Z,102969.53
2023-02-06T01:39:39.754Z,102966.88
2023-02-06T01:41:42.580Z,102970.28
2023-02-06T01:43:47.200Z,102961.38
2023-02-06T01:45:51.441Z,102962.00
2023-02-06T01:47:55.883Z,102965.28
2023-02-06T01:49:58.689Z,102966.16
2023-02-06T01:52:05.725Z,102966.03
2023-02-06T01:54:09.047Z,102969.44
2023-02-06T01:56:12.190Z,102964.91
2023-02-06T01:58:18.821Z,102957.94
2023-02-06T02:00:22.146Z,102957.78
2023-02-06T02:02:28.277Z,102954.06
2023-02-06T02:04:33.114Z,102957.22
2023-02-06T02:06:36.169Z,102949.44
2023-02-06T02:08:43.303Z,102954.56
2023-02-06T02:10:47.579Z,102954.56
2023-02-06T02:12:51.706Z,102950.84
2023-02-06T02:14:55.037Z,102949.09
2023-02-06T02:17:07.841Z,102940.19
2023-02-06T02:19:58.204Z,102948.88
2023-02-06T02:22:39.360Z,102951.44
2023-02-06T02:24:57.060Z,102950.44
2023-02-06T02:27:15.776Z,102952.13
2023-02-06T02:29:40.112Z,102959.00
2023-02-06T02:32:31.552Z,102964.88
2023-02-06T02:35:03.021Z,102951.63
2023-02-06T02:37:12.073Z,102957.66
2023-02-06T02:39:19.847Z,102950.59
2023-02-06T02:41:27.133Z,102954.84
2023-02-06T02:43:35.551Z,102950.47
2023-02-06T02:45:44.622Z,102962.69
2023-02-06T02:47:53.081Z,102952.03
2023-02-06T02:50:00.822Z,102956.38
2023-02-06T02:52:03.935Z,102951.88
2023-02-06T02:54:06.867Z,102951.78
2023-02-06T02:56:20.531Z,102952.59
2023-02-06T02:58:27.177Z,102953.44
2023-02-06T03:00:30.819Z,102957.78
2023-02-06T03:02:36.509Z,102952.41
2023-02-06T03:04:42.265Z,102966.34
2023-02-06T03:07:06.938Z,102959.28
2023-02-06T03:09:15.211Z,102969.56
2023-02-06T03:11:19.875Z,102964.34
2023-02-06T03:13:28.039Z,102970.38
2023-02-06T03:15:37.843Z,102962.56
2023-02-06T03:17:43.344Z,102966.97
2023-02-06T03:19:50.217Z,102967.91
2023-02-06T03:21:53.089Z,102967.84
2023-02-06T03:23:59.235Z,102973.69
2023-02-06T03:26:04.231Z,102963.81
2023-02-06T03:28:13.269Z,102958.28
2023-02-06T03:30:18.551Z,102960.59
2023-02-06T03:32:24.569Z,102966.53
2023-02-06T03:34:32.881Z,102965.69
2023-02-06T03:36:36.020Z,102969.22
2023-02-06T03:38:38.924Z,102962.34
2023-02-06T03:40:45.651Z,102973.72
2023-02-06T03:42:51.720Z,102973.81
2023-02-06T03:44:58.951Z,102974.09
2023-02-06T03:47:03.351Z,102973.22
2023-02-06T03:49:08.667Z,102969.72
2023-02-06T03:51:14.516Z,102966.22
2023-02-06T03:53:19.079Z,102964.53
2023-02-06T03:55:24.289Z,102964.53
2023-02-06T03:57:29.564Z,102961.88
2023-02-06T03:59:32.732Z,102980.19
2023-02-06T04:01:35.826Z,102975.97
2023-02-06T04:03:38.750Z,102977.28
2023-02-06T04:05:42.046Z,102976.06
2023-02-06T04:07:44.949Z,102979.91
2023-02-06T04:09:47.926Z,102976.94
2023-02-06T04:11:50.708Z,102979.72
2023-02-06T04:13:54.932Z,102964.09
2023-02-06T04:15:57.760Z,102974.53
2023-02-06T04:18:01.788Z,102971.94
2023-02-06T04:20:05.200Z,102975.19
2023-02-06T04:22:09.256Z,102975.19
2023-02-06T04:24:12.033Z,102977.75
2023-02-06T04:26:14.910Z,102964.66
2023-02-06T04:28:17.772Z,102970.81
2023-02-06T04:30:22.259Z,102963.81
2023-02-06T04:32:25.156Z,102982.81
2023-02-06T04:34:27.968Z,102984.53
2023-02-06T04:36:30.807Z,102994.16
2023-02-06T04:38:33.620Z,102988.03
2023-02-06T04:40:36.554Z,102985.16
2023-02-06T04:42:39.351Z,102991.34
2023-02-06T04:44:42.202Z,103002.53
2023-02-06T04:46:46.621Z,102996.41
2023-02-06T04:48:49.463Z,102997.50
2023-02-06T04:50:52.504Z,102997.59
2023-02-06T04:52:55.320Z,102990.81
2023-02-06T04:54:58.081Z,102986.50
2023-02-06T04:57:01.254Z,102985.69
2023-02-06T04:59:04.140Z,102971.69
2023-02-06T05:01:07.317Z,102968.88
2023-02-06T05:03:11.567Z,102965.47
2023-02-06T05:05:14.726Z,102962.22
2023-02-06T05:07:17.961Z,102961.59
2023-02-06T05:09:21.129Z,102952.97
2023-02-06T05:11:23.973Z,102958.31
2023-02-06T05:13:27.013Z,102964.47
2023-02-06T05:15:29.949Z,102957.50
2023-02-06T05:17:33.109Z,102968.88
2023-02-06T05:19:37.291Z,102962.91
2023-02-06T05:21:40.150Z,102962.13
2023-02-06T05:23:42.975Z,102958.75
2023-02-06T05:25:45.809Z,102960.56
2023-02-06T05:27:48.702Z,102963.34
2023-02-06T05:29:51.493Z,102960.78
2023-02-06T05:31:54.495Z,102964.38
2023-02-06T05:33:57.314Z,102955.78
2023-02-06T05:36:07.818Z,102954.06
2023-02-06T05:38:10.655Z,102953.25
2023-02-06T05:40:13.919Z,102954.16
2023-02-06T05:42:16.751Z,102953.38
2023-02-06T05:44:19.704Z,102950.72
2023-02-06T05:46:22.563Z,102953.47
2023-02-06T05:48:27.176Z,102951.88
2023-02-06T05:50:30.087Z,102955.41
2023-02-06T05:52:36.493Z,102951.97
2023-02-06T05:54:39.284Z,102949.22
2023-02-06T05:56:42.115Z,102944.91
2023-02-06T05:58:44.895Z,102943.34
2023-02-06T06:00:47.717Z,102944.25
2023-02-06T06:02:50.589Z,102948.69
2023-02-06T06:04:53.498Z,102949.91
2023-02-06T06:06:56.523Z,102950.28
2023-02-06T06:09:02.350Z,102952.16
2023-02-06T06:11:05.245Z,102945.16
2023-02-06T06:13:08.338Z,102955.41
2023-02-06T06:15:11.351Z,102953.13
2023-02-06T06:17:14.305Z,102954.13
2023-02-06T06:19:17.252Z,102961.28
2023-02-06T06:21:20.098Z,102965.34
2023-02-06T06:23:23.109Z,102955.09
2023-02-06T06:25:27.313Z,102961.47
2023-02-06T06:27:30.444Z,102962.00
2023-02-06T06:29:33.336Z,102954.97
2023-02-06T06:31:36.275Z,102952.16
2023-02-06T06:33:39.401Z,102955.88
2023-02-06T06:35:42.261Z,102956.56
2023-02-06T06:37:45.454Z,102957.91
2023-02-06T06:39:48.389Z,102959.88
2023-02-06T06:41:52.673Z,102946.06
2023-02-06T06:43:57.022Z,102953.13
2023-02-06T06:46:01.723Z,102955.66
2023-02-06T06:48:04.899Z,102954.84
2023-02-06T06:50:08.358Z,102950.53
2023-02-06T06:52:24.135Z,102953.13
2023-02-06T06:54:27.675Z,102948.03
2023-02-06T06:56:30.536Z,102952.06
2023-02-06T06:58:34.787Z,102953.94
2023-02-06T07:00:38.729Z,102957.63
2023-02-06T07:02:42.075Z,102958.50
2023-02-06T07:04:45.072Z,102955.53
2023-02-06T07:06:48.022Z,102945.16
2023-02-06T07:08:50.843Z,102938.97
2023-02-06T07:10:53.672Z,102947.59
2023-02-06T07:12:56.724Z,102947.66
2023-02-06T07:15:00.922Z,102961.69
2023-02-06T07:17:03.726Z,102952.94
2023-02-06T07:19:07.533Z,102950.84
2023-02-06T07:21:10.811Z,102951.22
2023-02-06T07:23:13.836Z,102956.25
2023-02-06T07:25:17.083Z,102952.13
2023-02-06T07:27:20.353Z,102958.03
2023-02-06T07:29:23.236Z,102955.25
2023-02-06T07:31:27.486Z,102950.13
2023-02-06T07:33:30.765Z,102945.09
2023-02-06T07:35:34.094Z,102943.50
2023-02-06T07:37:37.128Z,102937.38
2023-02-06T07:39:40.495Z,102946.00
2023-02-06T07:41:43.461Z,102940.00
2023-02-06T07:43:48.527Z,102940.19
2023-02-06T07:45:51.452Z,102939.59
2023-02-06T07:47:55.717Z,102940.34
2023-02-06T07:49:58.626Z,102938.28
2023-02-06T07:52:01.521Z,102939.94
2023-02-06T07:54:04.360Z,102937.81
2023-02-06T07:56:12.017Z,102928.53
2023-02-06T07:58:14.953Z,102942.66
2023-02-06T08:00:18.499Z,102947.00
2023-02-06T08:02:21.777Z,102949.72
2023-02-06T08:04:26.357Z,102952.22
2023-02-06T08:06:29.283Z,102965.31
2023-02-06T08:08:32.105Z,102964.59
2023-02-06T08:10:35.109Z,102957.69
2023-02-06T08:12:37.964Z,102954.75
2023-02-06T08:14:41.279Z,102944.75
2023-02-06T08:16:44.282Z,102938.00
2023-02-06T08:18:47.599Z,102938.16
2023-02-06T08:20:52.000Z,102944.50
2023-02-06T08:22:55.177Z,102949.63
2023-02-06T08:24:57.969Z,102954.84
2023-02-06T08:27:00.782Z,102964.28
2023-02-06T08:29:05.845Z,102961.69
2023-02-06T08:31:13.220Z,102974.22
2023-02-06T08:33:16.044Z,102970.94
2023-02-06T08:35:19.089Z,102969.16
2023-02-06T08:37:24.359Z,102961.38
2023-02-06T08:39:27.561Z,102955.34
2023-02-06T08:41:32.238Z,102964.41
2023-02-06T08:43:35.231Z,102959.19
2023-02-06T08:45:38.171Z,102958.50
2023-02-06T08:47:41.021Z,102956.19
2023-02-06T08:49:44.204Z,102957.13
2023-02-06T08:51:47.546Z,102956.28
2023-02-06T08:53:51.713Z,102956.22
2023-02-06T08:55:59.607Z,102951.78
2023-02-06T08:58:02.484Z,102951.75
2023-02-06T09:00:06.346Z,102953.84
2023-02-06T09:02:11.008Z,102961.00
2023-02-06T09:04:15.125Z,102974.03
2023-02-06T09:06:17.934Z,102972.00
2023-02-06T09:08:20.850Z,102958.03
2023-02-06T09:10:27.774Z,102958.97
2023-02-06T09:12:31.245Z,102956.44
2023-02-06T09:14:35.382Z,102958.94
2023-02-06T09:16:38.562Z,102955.44
2023-02-06T09:18:41.792Z,102954.09
2023-02-06T09:20:46.096Z,102960.22
2023-02-06T09:22:49.156Z,102970.78
2023-02-06T09:24:52.046Z,102969.38
2023-02-06T09:27:00.740Z,102964.63
2023-02-06T09:29:07.803Z,102969.88
2023-02-06T09:31:11.832Z,102971.38
2023-02-06T09:33:14.821Z,102969.78
2023-02-06T09:35:17.974Z,102962.88
2023-02-06T09:37:21.477Z,102961.81
2023-02-06T09:39:24.397Z,102954.34
2023-02-06T09:41:31.144Z,102951.44
2023-02-06T09:43:35.889Z,102958.84
2023-02-06T09:45:38.943Z,102951.09
2023-02-06T09:47:47.360Z,102957.47
2023-02-06T09:49:52.546Z,102955.44
2023-02-06T09:52:16.323Z,102957.56
2023-02-06T09:54:23.992Z,102951.81
2023-02-06T09:56:33.981Z,102959.09
2023-02-06T09:58:43.799Z,102958.44
2023-02-06T10:00:52.302Z,102965.38
2023-02-06T10:03:20.545Z,102958.84
2023-02-06T10:05:26.434Z,102964.84
2023-02-06T10:07:47.496Z,102960.88
2023-02-06T10:09:54.904Z,102962.69
2023-02-06T10:11:59.536Z,102955.09
2023-02-06T10:14:06.914Z,102957.22
2023-02-06T10:16:20.257Z,102953.88
2023-02-06T10:18:27.250Z,102951.00
2023-02-06T10:20:34.082Z,102954.97
2023-02-06T10:22:44.050Z,102954.06
2023-02-06T10:24:51.750Z,102946.41
2023-02-06T10:26:54.899Z,102936.25
2023-02-06T10:28:59.696Z,102918.09
2023-02-06T10:31:24.699Z,102919.84
2023-02-06T10:33:32.653Z,102922.91
2023-02-06T10:35:44.957Z,102914.56
2023-02-06T10:38:04.868Z,102905.97
2023-02-06T10:40:41.608Z,102905.50
2023-02-06T10:42:50.375Z,102895.00
2023-02-06T10:45:13.169Z,102888.06
2023-02-06T10:47:30.535Z,102883.25
2023-02-06T10:49:36.178Z,102879.97
2023-02-06T10:51:42.511Z,102879.09
2023-02-06T10:53:50.213Z,102876.72
2023-02-06T10:55:56.244Z,102871.59
2023-02-06T10:58:05.577Z,102872.56
2023-02-06T11:00:17.368Z,102866.63
2023-02-06T11:02:25.562Z,102862.19
2023-02-06T11:04:33.825Z,102856.13
2023-02-06T11:06:37.416Z,102855.88
2023-02-06T11:08:43.135Z,102855.34
2023-02-06T11:10:46.507Z,102855.38
2023-02-06T11:12:52.581Z,102849.06
2023-02-06T11:14:56.197Z,102850.94
2023-02-06T11:17:00.158Z,102851.94
2023-02-06T11:19:16.023Z,102839.81
2023-02-06T11:22:03.517Z,102843.31
2023-02-06T11:24:10.933Z,102838.97
2023-02-06T11:27:09.545Z,102848.63
2023-02-06T11:29:16.166Z,102839.88
2023-02-06T11:31:20.901Z,102836.47
2023-02-06T11:33:28.078Z,102846.09
2023-02-06T11:35:35.017Z,102849.47
2023-02-06T11:37:40.734Z,102844.25
2023-02-06T11:39:43.572Z,102843.34
2023-02-06T11:41:57.754Z,102841.34
2023-02-06T11:44:06.468Z,102829.22
2023-02-06T11:46:16.057Z,102837.00
2023-02-06T11:48:39.837Z,102846.69
2023-02-06T11:50:55.522Z,102845.00
2023-02-06T11:53:02.304Z,102844.06
2023-02-06T11:55:05.791Z,102844.88
2023-02-06T11:57:20.547Z,102850.16
2023-02-06T11:59:24.309Z,102853.91
2023-02-06T12:01:27.124Z,102854.97
2023-02-06T12:03:34.976Z,102853.91
2023-02-06T12:05:41.126Z,102852.22
2023-02-06T12:07:48.842Z,102838.19
2023-02-06T12:09:52.924Z,102840.06
2023-02-06T12:12:00.445Z,102840.53
2023-02-06T12:14:06.565Z,102853.53
2023-02-06T12:16:10.018Z,102850.16
2023-02-06T12:18:15.584Z,102855.41
2023-02-06T12:20:22.450Z,102842.78
2023-02-06T12:22:26.765Z,102837.31
2023-02-06T12:24:34.976Z,102843.00
2023-02-06T12:26:39.176Z,102842.22
2023-02-06T12:28:51.471Z,102836.31
2023-02-06T12:30:57.350Z,102833.78
2023-02-06T12:33:05.996Z,102828.56
2023-02-06T12:35:16.341Z,102832.72
2023-02-06T12:37:22.892Z,102825.09
2023-02-06T12:39:26.059Z,102826.00
2023-02-06T12:41:55.581Z,102817.13
2023-02-06T12:44:01.970Z,102827.75
2023-02-06T12:46:07.636Z,102825.97
2023-02-06T12:48:16.725Z,102828.56
2023-02-06T12:50:23.208Z,102820.78
2023-02-06T12:52:30.940Z,102816.44
2023-02-06T12:54:44.213Z,102817.38
2023-02-06T12:56:50.890Z,102814.72
2023-02-06T12:58:59.643Z,102812.22
2023-02-06T13:01:34.727Z,102817.38
2023-02-06T13:03:43.127Z,102798.97
2023-02-06T13:05:47.890Z,102813.66
2023-02-06T13:07:51.884Z,102816.31
2023-02-06T13:09:56.650Z,102808.19
2023-02-06T13:12:12.479Z,102807.91
2023-02-06T13:14:20.011Z,102806.47
2023-02-06T13:16:22.874Z,102789.09
2023-02-06T13:18:58.618Z,102794.47
2023-02-06T13:21:18.686Z,102798.88
2023-02-06T13:23:24.353Z,102800.56
2023-02-06T13:25:50.968Z,102791.75
2023-02-06T13:27:55.989Z,102793.97
2023-02-06T13:30:18.149Z,102795.06
2023-02-06T13:32:46.408Z,102794.97
2023-02-06T13:34:53.726Z,102782.88
2023-02-06T13:36:56.589Z,102790.78
2023-02-06T13:39:14.231Z,102788.13
2023-02-06T13:41:37.207Z,102777.72
2023-02-06T13:43:42.843Z,102778.22
2023-02-06T13:45:48.027Z,102776.84
2023-02-06T13:48:11.143Z,102782.00
2023-02-06T13:50:32.856Z,102772.38
2023-02-06T13:52:40.830Z,102780.34
2023-02-06T13:54:59.560Z,102782.09
2023-02-06T13:57:19.063Z,102789.06
2023-02-06T13:59:25.999Z,102791.72
2023-02-06T14:01:30.692Z,102793.88
2023-02-06T14:03:38.200Z,102795.91
2023-02-06T14:05:47.404Z,102788.91
2023-02-06T14:08:04.712Z,102782.75
2023-02-06T14:10:21.048Z,102784.47
2023-02-06T14:12:36.586Z,102790.63
2023-02-06T14:14:52.714Z,102784.44
2023-02-06T14:17:03.826Z,102787.97
2023-02-06T14:19:12.020Z,102791.41
2023-02-06T14:21:24.530Z,102786.88
2023-02-06T14:23:39.131Z,102786.00
2023-02-06T14:26:00.468Z,102781.66
2023-02-06T14:28:10.418Z,102791.28
2023-02-06T14:30:24.059Z,102787.59
2023-02-06T14:32:40.019Z,102786.56
2023-02-06T14:34:54.505Z,102791.09
2023-02-06T14:37:07.184Z,102788.47
2023-02-06T14:39:35.516Z,102783.22
2023-02-06T14:41:39.663Z,102785.84
2023-02-06T14:43:44.366Z,102789.19
2023-02-06T14:46:06.233Z,102790.59
2023-02-06T14:48:19.291Z,102783.06
2023-02-06T14:50:25.013Z,102796.22
2023-02-06T14:52:30.092Z,102787.38
2023-02-06T14:54:34.827Z,102792.47
2023-02-06T14:56:39.269Z,102803.75
2023-02-06T14:58:46.063Z,102804.84
2023-02-06T15:00:50.351Z,102799.59
2023-02-06T15:03:04.263Z,102799.59
2023-02-06T15:05:07.608Z,102804.81
2023-02-06T15:07:23.346Z,102803.13
2023-02-06T15:09:29.182Z,102797.91
2023-02-06T15:11:33.460Z,102790.13
2023-02-06T15:13:37.335Z,102786.69
2023-02-06T15:15:55.153Z,102785.81
2023-02-06T15:18:03.037Z,102773.50
2023-02-06T15:20:40.248Z,102775.31
2023-02-06T15:22:43.284Z,102789.22
2023-02-06T15:24:56.002Z,102784.03
2023-02-06T15:27:04.272Z,102787.44
2023-02-06T15:29:16.230Z,102783.81
2023-02-06T15:31:22.498Z,102786.41
2023-02-06T15:33:28.169Z,102778.50
2023-02-06T15:35:34.165Z,102781.16
2023-02-06T15:37:37.350Z,102777.66
2023-02-06T15:39:40.527Z,102775.06
2023-02-06T15:41:45.594Z,102768.97
2023-02-06T15:43:48.766Z,102772.34
2023-02-06T15:45:52.902Z,102767.16
2023-02-06T15:47:57.461Z,102768.81
2023-02-06T15:50:00.757Z,102767.94
2023-02-06T15:52:03.910Z,102766.81
2023-02-06T15:54:08.730Z,102769.47
2023-02-06T15:56:21.928Z,102771.28
2023-02-06T15:58:25.403Z,102769.53
2023-02-06T16:00:31.104Z,102762.03
2023-02-06T16:02:35.666Z,102757.84
2023-02-06T16:04:40.716Z,102773.28
2023-02-06T16:06:43.972Z,102775.09
2023-02-06T16:08:50.506Z,102770.75
2023-02-06T16:10:55.215Z,102761.03
2023-02-06T16:13:00.173Z,102767.13
2023-02-06T16:15:05.005Z,102770.47
2023-02-06T16:17:26.386Z,102764.31
2023-02-06T16:19:48.787Z,102769.53
2023-02-06T16:22:05.796Z,102768.56
2023-02-06T16:24:17.751Z,102769.38
2023-02-06T16:26:22.462Z,102765.66
2023-02-06T16:28:27.866Z,102777.88
2023-02-06T16:30:32.602Z,102776.13
2023-02-06T16:32:36.003Z,102773.22
2023-02-06T16:34:41.293Z,102780.41
2023-02-06T16:36:45.732Z,102776.72
2023-02-06T16:39:02.731Z,102780.34
2023-02-06T16:41:27.424Z,102776.00
2023-02-06T16:43:31.548Z,102776.00
2023-02-06T16:45:34.409Z,102764.59
2023-02-06T16:47:37.845Z,102765.28
2023-02-06T16:49:40.783Z,102772.44
2023-02-06T16:51:46.045Z,102755.03
2023-02-06T16:53:49.683Z,102752.31
2023-02-06T16:55:53.063Z,102757.63
2023-02-06T16:57:58.604Z,102761.16
2023-02-06T17:00:02.140Z,102759.41
2023-02-06T17:02:12.609Z,102759.47
2023-02-06T17:04:15.537Z,102758.47
2023-02-06T17:06:21.876Z,102754.88
2023-02-06T17:08:26.213Z,102760.06
2023-02-06T17:10:29.110Z,102758.16
2023-02-06T17:12:32.061Z,102762.34
2023-02-06T17:14:34.942Z,102762.28
2023-02-06T17:16:37.872Z,102765.91
2023-02-06T17:18:40.795Z,102769.25
2023-02-06T17:20:45.468Z,102773.63
2023-02-06T17:22:50.773Z,102768.41
2023-02-06T17:24:55.103Z,102777.03
2023-02-06T17:26:58.926Z,102768.38
2023-02-06T17:29:01.842Z,102773.72
2023-02-06T17:31:04.843Z,102772.88
2023-02-06T17:33:08.060Z,102774.63
2023-02-06T17:35:12.781Z,102774.59
2023-02-06T17:37:20.740Z,102779.00
2023-02-06T17:39:24.089Z,102783.22
2023-02-06T17:41:30.718Z,102777.81
2023-02-06T17:43:36.191Z,102779.41
2023-02-06T17:45:39.781Z,102775.13
2023-02-06T17:47:42.848Z,102778.56
2023-02-06T17:49:46.698Z,102771.56
2023-02-06T17:51:49.557Z,102774.88
2023-02-06T17:53:52.626Z,102771.38
2023-02-06T17:55:55.819Z,102768.69
2023-02-06T17:58:00.470Z,102771.19
2023-02-06T18:00:04.381Z,102768.59
2023-02-06T18:02:07.860Z,102767.59
2023-02-06T18:04:12.580Z,102758.09
2023-02-06T18:06:15.540Z,102760.63
2023-02-06T18:08:19.299Z,102764.03
2023-02-06T18:10:23.808Z,102759.59
2023-02-06T18:12:26.664Z,102763.00
2023-02-06T18:14:31.004Z,102750.69
2023-02-06T18:16:34.100Z,102767.19
2023-02-06T18:18:37.022Z,102761.88
2023-02-06T18:20:41.989Z,102764.44
2023-02-06T18:22:47.385Z,102768.75
2023-02-06T18:24:51.341Z,102766.03
2023-02-06T18:26:54.174Z,102770.28
2023-02-06T18:28:57.081Z,102770.13
2023-02-06T18:31:02.144Z,102772.56
2023-02-06T18:33:05.231Z,102775.16
2023-02-06T18:35:09.241Z,102775.84
2023-02-06T18:37:12.161Z,102783.19
2023-02-06T18:39:15.080Z,102788.19
2023-02-06T18:41:32.357Z,102778.63
2023-02-06T18:43:35.546Z,102785.66
2023-02-06T18:45:39.653Z,102787.41
2023-02-06T18:47:43.986Z,102788.22
2023-02-06T18:49:47.023Z,102784.72
2023-02-06T18:51:50.209Z,102785.63
2023-02-06T18:53:53.060Z,102790.72
2023-02-06T18:55:58.788Z,102788.66
2023-02-06T18:58:01.901Z,102787.88
2023-02-06T19:00:06.381Z,102794.94
2023-02-06T19:02:11.051Z,102787.00
2023-02-06T19:04:15.333Z,102788.88
2023-02-06T19:06:20.423Z,102784.50
2023-02-06T19:08:30.641Z,102780.91
2023-02-06T19:10:33.897Z,102780.00
2023-02-06T19:12:38.119Z,102771.81
2023-02-06T19:14:42.767Z,102766.34
2023-02-06T19:16:47.992Z,102775.81
2023-02-06T19:18:50.860Z,102771.91
2023-02-06T19:20:55.106Z,102772.66
2023-02-06T19:22:58.010Z,102769.94
2023-02-06T19:25:00.916Z,102771.47
2023-02-06T19:27:03.838Z,102770.53
2023-02-06T19:29:07.272Z,102778.38
2023-02-06T19:31:11.379Z,102781.91
2023-02-06T19:33:14.311Z,102776.63
2023-02-06T19:35:17.201Z,102776.53
2023-02-06T19:37:21.918Z,102790.38
2023-02-06T19:39:26.044Z,102797.16
2023-02-06T19:41:30.441Z,102798.78
2023-02-06T19:43:33.364Z,102806.56
2023-02-06T19:45:37.274Z,102806.56
2023-02-06T19:47:40.190Z,102808.19
2023-02-06T19:49:43.598Z,102812.38
2023-02-06T19:51:46.456Z,102804.38
2023-02-06T19:53:51.787Z,102803.34
2023-02-06T19:55:54.758Z,102810.09
2023-02-06T19:57:57.770Z,102806.63
2023-02-06T20:00:00.819Z,102812.56
2023-02-06T20:02:04.142Z,102826.31
2023-02-06T20:04:07.122Z,102827.03
2023-02-06T20:06:11.997Z,102833.09
2023-02-06T20:08:15.006Z,102825.06
2023-02-06T20:10:19.278Z,102823.50
2023-02-06T20:12:22.194Z,102830.66
2023-02-06T20:14:33.349Z,102827.03
2023-02-06T20:16:38.831Z,102816.69
2023-02-06T20:18:41.763Z,102815.78
2023-02-06T20:20:47.056Z,102827.88
2023-02-06T20:22:49.968Z,102828.63
2023-02-06T20:24:53.009Z,102829.22
2023-02-06T20:26:59.554Z,102826.63
2023-02-06T20:29:02.755Z,102841.38
2023-02-06T20:31:09.077Z,102836.88
2023-02-06T20:33:12.198Z,102833.28
2023-02-06T20:35:15.107Z,102833.25
2023-02-06T20:37:18.735Z,102838.28
2023-02-06T20:39:21.960Z,102829.59
2023-02-06T20:41:27.650Z,102837.44
2023-02-06T20:43:31.996Z,102826.78
2023-02-06T20:45:35.149Z,102829.53
2023-02-06T20:47:38.069Z,102825.81
2023-02-06T20:49:41.921Z,102823.06
2023-02-06T20:51:44.838Z,102815.19
2023-02-06T20:53:48.060Z,102826.59
2023-02-06T20:55:50.938Z,102823.06
2023-02-06T20:58:00.112Z,102823.97
2023-02-06T21:00:05.186Z,102818.84
2023-02-06T21:02:08.091Z,102824.91
2023-02-06T21:04:13.441Z,102827.47
2023-02-06T21:06:16.828Z,102818.75
2023-02-06T21:08:19.682Z,102817.16
2023-02-06T21:10:22.907Z,102821.56
2023-02-06T21:12:33.323Z,102830.19
2023-02-06T21:14:36.183Z,102827.47
2023-02-06T21:16:40.647Z,102826.41
2023-02-06T21:18:43.892Z,102837.13
2023-02-06T21:20:46.821Z,102836.81
2023-02-06T21:22:52.802Z,102828.19
2023-02-06T21:24:55.748Z,102826.34
2023-02-06T21:26:58.656Z,102824.69
2023-02-06T21:29:02.535Z,102828.97
2023-02-06T21:31:07.292Z,102823.66
2023-02-06T21:33:11.585Z,102827.19
2023-02-06T21:35:14.601Z,102819.44
2023-02-06T21:37:17.968Z,102811.56
2023-02-06T21:39:23.573Z,102817.38
2023-02-06T21:41:26.523Z,102815.84
2023-02-06T21:43:29.585Z,102818.34
2023-02-06T21:45:32.443Z,102822.56
2023-02-06T21:47:35.689Z,102816.56
2023-02-06T21:49:40.135Z,102826.03
2023-02-06T21:51:43.044Z,102824.09
2023-02-06T21:53:46.586Z,102830.09
2023-02-06T21:55:50.133Z,102829.91
2023-02-06T21:57:53.096Z,102833.00
2023-02-06T21:59:56.004Z,102835.97
2023-02-06T22:01:59.086Z,102829.63
2023-02-06T22:04:03.398Z,102828.91
2023-02-06T22:06:09.195Z,102826.16
2023-02-06T22:08:12.098Z,102822.00
2023-02-06T22:10:15.009Z,102817.53
2023-02-06T22:12:18.051Z,102822.38
2023-02-06T22:14:21.344Z,102808.38
2023-02-06T22:16:24.780Z,102815.41
2023-02-06T22:18:28.540Z,102810.13
2023-02-06T22:20:31.438Z,102809.22
2023-02-06T22:22:37.220Z,102809.09
2023-02-06T22:24:40.108Z,102814.06
2023-02-06T22:26:43.307Z,102812.28
2023-02-06T22:28:46.638Z,102811.28
2023-02-06T22:30:49.656Z,102807.63
2023-02-06T22:32:52.568Z,102808.63
2023-02-06T22:34:55.507Z,102808.94
2023-02-06T22:36:58.729Z,102815.06
2023-02-06T22:39:06.433Z,102810.78
2023-02-06T22:41:11.737Z,102803.66
2023-02-06T22:43:14.626Z,102797.53
2023-02-06T22:45:17.636Z,102789.88
2023-02-06T22:47:20.759Z,102782.16
2023-02-06T22:49:24.676Z,102787.44
2023-02-06T22:51:28.275Z,102787.44
2023-02-06T22:53:30.130Z,102791.69
2023-02-06T22:55:53.535Z,102800.28
2023-02-06T22:57:56.383Z,102792.34
2023-02-06T22:59:59.366Z,102788.69
2023-02-06T23:02:02.472Z,102792.16
2023-02-06T23:04:07.302Z,102791.72
2023-02-06T23:06:11.668Z,102789.94
2023-02-06T23:08:15.830Z,102802.06
2023-02-06T23:10:18.903Z,102803.44
2023-02-06T23:12:23.333Z,102800.03
2023-02-06T23:14:27.027Z,102806.13
2023-02-06T23:16:31.427Z,102815.63
2023-02-06T23:18:35.008Z,102817.03
2023-02-06T23:20:38.276Z,102803.28
2023-02-06T23:22:41.165Z,102802.09
2023-02-06T23:24:44.088Z,102799.88
2023-02-06T23:26:48.986Z,102805.66
2023-02-06T23:28:53.273Z,102814.53
2023-02-06T23:30:56.343Z,102821.50
2023-02-06T23:32:59.166Z,102820.72
2023-02-06T23:35:02.084Z,102811.22
2023-02-06T23:37:05.057Z,102806.78
2023-02-06T23:39:07.942Z,102810.66
2023-02-06T23:41:12.644Z,102817.84
2023-02-06T23:43:15.633Z,102820.69
2023-02-06T23:45:20.033Z,102824.66
2023-02-06T23:47:22.927Z,102834.22
2023-02-06T23:49:25.787Z,102839.41
2023-02-06T23:51:29.935Z,102843.38
2023-02-06T23:53:33.024Z,102858.81
2023-02-06T23:55:36.297Z,102859.09
2023-02-06T23:57:40.539Z,102842.09
2023-02-06T23:59:43.575Z,102853.22
